createdAt,value
2016-08-12T00:03:52.834Z,8
2016-08-12T00:10:26.461Z,8
2016-08-12T00:12:33.911Z,8
2016-08-12T00:33:17.277Z,8
2016-08-12T00:43:19.896Z,8
2016-08-12T00:49:23.377Z,8
2016-08-12T00:56:28.173Z,8
2016-08-12T00:59:21.538Z,8
2016-08-12T01:07:19.472Z,8
2016-08-12T01:22:26.594Z,8
2016-08-12T01:34:20.601Z,8
2016-08-12T01:41:21.518Z,8
2016-08-12T01:46:25.437Z,8
2016-08-12T01:52:22.953Z,8
2016-08-12T01:59:22.462Z,8
2016-08-12T02:06:23.758Z,7
2016-08-12T02:15:23.904Z,8
2016-08-12T02:23:27.572Z,8
2016-08-12T02:42:43.753Z,8
2016-08-12T02:52:29.070Z,8
2016-08-12T03:02:27.551Z,8
2016-08-12T03:13:29.289Z,8
2016-08-12T03:19:27.454Z,8
2016-08-12T03:26:28.440Z,8
2016-08-12T03:32:28.371Z,8
2016-08-12T03:52:25.881Z,8
2016-08-12T04:05:49.070Z,8
2016-08-12T04:16:51.231Z,8
2016-08-12T04:24:51.190Z,8
2016-08-12T04:31:51.950Z,8
2016-08-12T04:38:51.971Z,8
2016-08-12T04:44:51.658Z,8
2016-08-12T04:56:52.607Z,8
2016-08-12T05:05:54.316Z,7
2016-08-12T05:11:55.095Z,8
2016-08-12T05:18:54.547Z,8
2016-08-12T05:24:54.130Z,8
2016-08-12T05:30:55.251Z,8
2016-08-12T05:37:55.863Z,8
2016-08-12T05:44:43.449Z,8
2016-08-12T05:58:01.929Z,8
2016-08-12T06:15:52.321Z,8
2016-08-12T06:22:58.963Z,7
2016-08-12T06:30:00.846Z,7
2016-08-12T06:36:03.285Z,8
2016-08-12T07:00:05.145Z,8
2016-08-12T07:10:09.067Z,8
2016-08-12T07:20:09.174Z,7
2016-08-12T07:26:10.452Z,7
2016-08-12T07:32:10.862Z,8
2016-08-12T07:38:11.601Z,8
2016-08-12T07:44:12.371Z,8
2016-08-12T07:50:11.702Z,8
2016-08-12T07:56:09.210Z,8
2016-08-12T08:02:08.656Z,8
2016-08-12T08:08:11.705Z,8
2016-08-12T08:14:09.023Z,8
2016-08-12T08:20:15.475Z,8
2016-08-12T08:26:14.433Z,8
2016-08-12T08:32:09.909Z,8
2016-08-12T08:40:12.489Z,8
2016-08-12T08:47:17.487Z,7
2016-08-12T08:55:15.268Z,8
2016-08-12T09:01:14.914Z,8
2016-08-12T09:07:16.045Z,8
2016-08-12T09:16:15.992Z,8
2016-08-12T09:23:16.823Z,8
2016-08-12T09:29:17.129Z,8
2016-08-12T09:35:17.568Z,8
2016-08-12T09:42:30.279Z,7
2016-08-12T09:49:17.977Z,8
2016-08-12T09:55:18.488Z,8
2016-08-12T10:01:18.723Z,8
2016-08-12T10:07:19.500Z,8
2016-08-12T10:13:19.282Z,8
2016-08-12T10:19:19.676Z,8
2016-08-12T15:19:10.754Z,8
2016-08-12T15:31:29.017Z,7
2016-08-12T15:39:29.391Z,8
2016-08-12T15:45:30.017Z,7
2016-08-12T15:51:30.676Z,7
2016-08-12T15:57:31.255Z,8
2016-08-12T16:03:31.353Z,8
2016-08-12T16:09:31.230Z,8
2016-08-12T16:15:32.559Z,8
2016-08-12T16:21:32.788Z,8
2016-08-12T16:27:32.577Z,8
2016-08-12T16:33:33.015Z,8
2016-08-12T16:39:33.509Z,7
2016-08-12T16:45:34.301Z,7
2016-08-12T16:51:34.421Z,8
2016-08-12T16:57:34.949Z,8
2016-08-12T17:03:35.405Z,8
2016-08-12T17:09:36.354Z,8
2016-08-12T17:15:36.659Z,8
2016-08-12T17:21:36.490Z,8
2016-08-12T17:27:37.210Z,8
2016-08-12T17:33:37.596Z,8
2016-08-12T17:39:38.017Z,8
2016-08-12T17:45:38.492Z,8
2016-08-12T17:51:39.157Z,8
2016-08-12T17:57:39.302Z,7
2016-08-12T18:03:39.656Z,7
2016-08-12T18:09:40.289Z,7
2016-08-12T18:15:41.504Z,7
2016-08-12T18:21:41.168Z,6
2016-08-12T18:27:42.393Z,6
2016-08-12T18:33:42.133Z,6
2016-08-12T18:39:42.738Z,7
2016-08-12T18:45:43.290Z,7
2016-08-12T18:51:43.979Z,7
2016-08-12T18:57:44.310Z,7
2016-08-12T19:04:43.364Z,7
2016-08-12T19:10:45.646Z,7
2016-08-12T19:16:46.812Z,6
2016-08-12T19:22:48.313Z,4
2016-08-12T19:28:49.967Z,3
2016-08-12T19:35:31.095Z,2
2016-08-12T19:41:31.612Z,2
2016-08-12T19:47:32.609Z,3
2016-08-12T19:53:32.846Z,2
2016-08-12T19:59:34.289Z,2
2016-08-12T20:05:36.614Z,2
2016-08-12T20:11:34.230Z,1
2016-08-12T20:22:31.705Z,1
2016-08-12T20:28:31.894Z,1
2016-08-12T20:34:32.490Z,1
2016-08-12T20:40:32.384Z,1
2016-08-12T20:46:32.568Z,0
2016-08-12T20:52:32.790Z,0
2016-08-12T20:58:32.926Z,0
2016-08-12T21:04:33.153Z,0
2016-08-12T21:10:33.262Z,0
2016-08-12T21:16:33.729Z,0
2016-08-12T21:22:33.884Z,0
2016-08-12T21:28:34.032Z,0
2016-08-12T21:34:34.024Z,0
2016-08-12T21:40:34.345Z,0
2016-08-12T21:46:34.690Z,0
2016-08-12T21:58:32.577Z,0
2016-08-12T22:04:35.873Z,0
2016-08-12T22:10:41.007Z,0
2016-08-12T22:16:41.284Z,0
2016-08-12T22:22:41.709Z,0
2016-08-12T22:28:41.523Z,0
2016-08-12T22:37:35.336Z,0
2016-08-12T22:43:35.614Z,0
2016-08-12T22:49:35.798Z,0
2016-08-12T22:55:36.574Z,0
2016-08-12T23:01:36.674Z,0
2016-08-12T23:07:36.797Z,0
2016-08-12T23:13:37.355Z,0
2016-08-12T23:19:37.414Z,0
2016-08-12T23:25:37.884Z,1
2016-08-12T23:31:36.531Z,2
2016-08-12T23:37:40.915Z,2
2016-08-12T23:43:38.450Z,1
2016-08-12T23:49:38.491Z,2
2016-08-12T23:55:38.554Z,3
